sensor_id;sensor_type;location;lat;lon;timestamp;pressure;altitude;pressure_sealevel;temperature;humidity
50166;BME280;36071;48.140;11.516;2023-03-21T00:03:30;95740.0;;;8.7;68.2
50166;BME280;36071;48.140;11.516;2023-03-21T00:08:30;95740.0;;;8.8;68.2
50166;BME280;36071;48.140;11.516;2023-03-21T00:13:30;95720.0;;;8.8;68.1
50166;BME280;36071;48.140;11.516;2023-03-21T00:18:30;95720.0;;;8.7;68.2
50166;BME280;36071;48.140;11.516;2023-03-21T00:23:31;95720.0;;;8.8;68.4
50166;BME280;36071;48.140;11.516;2023-03-21T00:28:30;95720.0;;;8.7;68.6
50166;BME280;36071;48.140;11.516;2023-03-21T00:33:30;95720.0;;;8.7;68.9
50166;BME280;36071;48.140;11.516;2023-03-21T00:38:30;95700.0;;;8.7;69.2
50166;BME280;36071;48.140;11.516;2023-03-21T00:43:30;95710.0;;;8.7;69.1
50166;BME280;36071;48.140;11.516;2023-03-21T00:48:30;95700.0;;;8.8;68.7
50166;BME280;36071;48.140;11.516;2023-03-21T00:53:30;95690.0;;;8.8;68.9
50166;BME280;36071;48.140;11.516;2023-03-21T01:03:31;95700.0;;;8.9;68.9
50166;BME280;36071;48.140;11.516;2023-03-21T01:08:31;95680.0;;;8.9;68.7
50166;BME280;36071;48.140;11.516;2023-03-21T01:13:30;95680.0;;;8.9;68.8
50166;BME280;36071;48.140;11.516;2023-03-21T01:18:31;95680.0;;;8.9;68.7
50166;BME280;36071;48.140;11.516;2023-03-21T01:23:30;95680.0;;;8.9;68.6
50166;BME280;36071;48.140;11.516;2023-03-21T01:28:30;95670.0;;;8.9;68.6
50166;BME280;36071;48.140;11.516;2023-03-21T01:33:30;95670.0;;;8.9;68.4
50166;BME280;36071;48.140;11.516;2023-03-21T01:43:31;95670.0;;;8.8;69.3
50166;BME280;36071;48.140;11.516;2023-03-21T01:48:30;95650.0;;;8.8;69.4
50166;BME280;36071;48.140;11.516;2023-03-21T01:53:30;95650.0;;;8.8;69.6
50166;BME280;36071;48.140;11.516;2023-03-21T01:58:30;95650.0;;;8.9;69.4
50166;BME280;36071;48.140;11.516;2023-03-21T02:03:30;95640.0;;;8.9;69.3
50166;BME280;36071;48.140;11.516;2023-03-21T02:13:30;95650.0;;;8.9;69.6
50166;BME280;36071;48.140;11.516;2023-03-21T02:23:57;95640.0;;;8.9;69.7
50166;BME280;36071;48.140;11.516;2023-03-21T02:28:31;95640.0;;;8.9;70.3
50166;BME280;36071;48.140;11.516;2023-03-21T02:33:36;95640.0;;;8.9;70.0
50166;BME280;36071;48.140;11.516;2023-03-21T02:38:31;95640.0;;;8.9;70.7
50166;BME280;36071;48.140;11.516;2023-03-21T02:43:31;95640.0;;;8.9;70.4
50166;BME280;36071;48.140;11.516;2023-03-21T02:48:31;95640.0;;;8.9;70.3
50166;BME280;36071;48.140;11.516;2023-03-21T02:58:30;95650.0;;;8.8;70.7
50166;BME280;36071;48.140;11.516;2023-03-21T03:03:30;95640.0;;;8.8;70.6
50166;BME280;36071;48.140;11.516;2023-03-21T03:08:32;95650.0;;;8.7;71.0
50166;BME280;36071;48.140;11.516;2023-03-21T03:13:34;95640.0;;;8.8;70.7
50166;BME280;36071;48.140;11.516;2023-03-21T03:18:32;95640.0;;;8.7;70.9
50166;BME280;36071;48.140;11.516;2023-03-21T03:23:32;95640.0;;;8.7;71.7
50166;BME280;36071;48.140;11.516;2023-03-21T03:28:33;95640.0;;;8.7;71.1
50166;BME280;36071;48.140;11.516;2023-03-21T03:33:30;95630.0;;;8.7;71.1
50166;BME280;36071;48.140;11.516;2023-03-21T03:38:30;95630.0;;;8.8;71.2
50166;BME280;36071;48.140;11.516;2023-03-21T03:43:32;95630.0;;;8.7;71.3
50166;BME280;36071;48.140;11.516;2023-03-21T03:48:31;95630.0;;;8.7;71.8
50166;BME280;36071;48.140;11.516;2023-03-21T03:53:32;95640.0;;;8.7;72.0
50166;BME280;36071;48.140;11.516;2023-03-21T03:58:30;95640.0;;;8.8;72.0
50166;BME280;36071;48.140;11.516;2023-03-21T04:03:30;95640.0;;;8.8;72.2
50166;BME280;36071;48.140;11.516;2023-03-21T04:08:30;95630.0;;;8.8;71.6
50166;BME280;36071;48.140;11.516;2023-03-21T04:13:30;95630.0;;;8.8;71.3
50166;BME280;36071;48.140;11.516;2023-03-21T04:18:30;95620.0;;;8.7;71.5
50166;BME280;36071;48.140;11.516;2023-03-21T04:23:30;95630.0;;;8.7;71.2
50166;BME280;36071;48.140;11.516;2023-03-21T04:28:30;95630.0;;;8.7;71.4
50166;BME280;36071;48.140;11.516;2023-03-21T04:33:30;95620.0;;;8.7;71.5
50166;BME280;36071;48.140;11.516;2023-03-21T04:38:31;95620.0;;;8.7;71.1
50166;BME280;36071;48.140;11.516;2023-03-21T04:43:30;95610.0;;;8.7;71.1
50166;BME280;36071;48.140;11.516;2023-03-21T04:48:30;95610.0;;;8.7;70.8
50166;BME280;36071;48.140;11.516;2023-03-21T04:53:30;95620.0;;;8.7;71.0
50166;BME280;36071;48.140;11.516;2023-03-21T04:58:30;95610.0;;;8.7;71.0
50166;BME280;36071;48.140;11.516;2023-03-21T05:03:30;95620.0;;;8.6;71.4
50166;BME280;36071;48.140;11.516;2023-03-21T05:08:30;95620.0;;;8.6;71.2
50166;BME280;36071;48.140;11.516;2023-03-21T05:13:30;95610.0;;;8.6;71.7
50166;BME280;36071;48.140;11.516;2023-03-21T05:18:30;95610.0;;;8.6;71.4
50166;BME280;36071;48.140;11.516;2023-03-21T05:23:30;95610.0;;;8.6;71.5
50166;BME280;36071;48.140;11.516;2023-03-21T05:28:30;95610.0;;;8.6;71.4
50166;BME280;36071;48.140;11.516;2023-03-21T05:33:30;95610.0;;;8.7;71.3
50166;BME280;36071;48.140;11.516;2023-03-21T05:38:30;95610.0;;;8.7;70.5
50166;BME280;36071;48.140;11.516;2023-03-21T05:43:30;95610.0;;;8.8;70.5
50166;BME280;36071;48.140;11.516;2023-03-21T05:48:31;95620.0;;;8.8;70.8
50166;BME280;36071;48.140;11.516;2023-03-21T05:53:30;95630.0;;;8.8;70.0
50166;BME280;36071;48.140;11.516;2023-03-21T05:58:30;95630.0;;;8.7;71.0
50166;BME280;36071;48.140;11.516;2023-03-21T06:03:30;95640.0;;;8.8;70.1
50166;BME280;36071;48.140;11.516;2023-03-21T06:08:30;95630.0;;;8.8;70.2
50166;BME280;36071;48.140;11.516;2023-03-21T06:13:30;95630.0;;;8.8;70.0
50166;BME280;36071;48.140;11.516;2023-03-21T06:18:30;95630.0;;;8.9;70.0
50166;BME280;36071;48.140;11.516;2023-03-21T06:23:30;95630.0;;;8.9;69.5
50166;BME280;36071;48.140;11.516;2023-03-21T06:28:32;95640.0;;;8.9;69.5
50166;BME280;36071;48.140;11.516;2023-03-21T06:33:30;95640.0;;;8.9;69.2
50166;BME280;36071;48.140;11.516;2023-03-21T06:38:30;95640.0;;;9.0;69.4
50166;BME280;36071;48.140;11.516;2023-03-21T06:43:30;95640.0;;;8.9;69.2
50166;BME280;36071;48.140;11.516;2023-03-21T06:48:30;95650.0;;;9.0;68.5
50166;BME280;36071;48.140;11.516;2023-03-21T06:53:30;95660.0;;;9.0;69.1
50166;BME280;36071;48.140;11.516;2023-03-21T06:58:30;95650.0;;;9.1;68.1
50166;BME280;36071;48.140;11.516;2023-03-21T07:03:30;95650.0;;;9.1;67.6
50166;BME280;36071;48.140;11.516;2023-03-21T07:08:30;95640.0;;;9.2;67.6
50166;BME280;36071;48.140;11.516;2023-03-21T07:13:30;95650.0;;;9.2;66.8
50166;BME280;36071;48.140;11.516;2023-03-21T07:18:30;95650.0;;;9.2;67.1
50166;BME280;36071;48.140;11.516;2023-03-21T07:23:30;95650.0;;;9.3;66.5
50166;BME280;36071;48.140;11.516;2023-03-21T07:28:30;95650.0;;;9.4;65.9
50166;BME280;36071;48.140;11.516;2023-03-21T07:33:31;95650.0;;;9.4;66.7
50166;BME280;36071;48.140;11.516;2023-03-21T07:38:30;95650.0;;;9.5;66.8
50166;BME280;36071;48.140;11.516;2023-03-21T07:43:30;95650.0;;;9.5;65.6
50166;BME280;36071;48.140;11.516;2023-03-21T07:48:30;95650.0;;;9.6;65.5
50166;BME280;36071;48.140;11.516;2023-03-21T07:53:30;95650.0;;;9.6;64.8
50166;BME280;36071;48.140;11.516;2023-03-21T07:58:30;95650.0;;;9.8;63.9
50166;BME280;36071;48.140;11.516;2023-03-21T08:03:30;95660.0;;;9.7;64.3
50166;BME280;36071;48.140;11.516;2023-03-21T08:08:30;95660.0;;;9.8;63.6
50166;BME280;36071;48.140;11.516;2023-03-21T08:13:30;95660.0;;;9.9;62.7
50166;BME280;36071;48.140;11.516;2023-03-21T08:18:30;95660.0;;;9.9;62.9
50166;BME280;36071;48.140;11.516;2023-03-21T08:23:30;95650.0;;;10.0;61.7
50166;BME280;36071;48.140;11.516;2023-03-21T08:28:30;95650.0;;;10.0;62.5
50166;BME280;36071;48.140;11.516;2023-03-21T08:33:30;95650.0;;;10.1;61.7
50166;BME280;36071;48.140;11.516;2023-03-21T08:38:30;95660.0;;;10.3;61.5
50166;BME280;36071;48.140;11.516;2023-03-21T08:43:30;95650.0;;;10.4;61.3
50166;BME280;36071;48.140;11.516;2023-03-21T08:48:30;95650.0;;;10.4;60.2
50166;BME280;36071;48.140;11.516;2023-03-21T08:53:30;95640.0;;;10.4;60.4
50166;BME280;36071;48.140;11.516;2023-03-21T08:58:30;95640.0;;;10.5;59.2
50166;BME280;36071;48.140;11.516;2023-03-21T09:03:30;95630.0;;;10.7;58.3
50166;BME280;36071;48.140;11.516;2023-03-21T09:08:30;95630.0;;;10.6;59.5
50166;BME280;36071;48.140;11.516;2023-03-21T09:13:30;95620.0;;;10.9;58.8
50166;BME280;36071;48.140;11.516;2023-03-21T09:18:30;95620.0;;;10.9;57.7
50166;BME280;36071;48.140;11.516;2023-03-21T09:23:30;95620.0;;;11.1;59.9
50166;BME280;36071;48.140;11.516;2023-03-21T09:28:31;95620.0;;;11.2;57.0
50166;BME280;36071;48.140;11.516;2023-03-21T09:33:30;95620.0;;;11.3;56.9
50166;BME280;36071;48.140;11.516;2023-03-21T09:38:30;95610.0;;;11.5;55.8
50166;BME280;36071;48.140;11.516;2023-03-21T09:43:35;95620.0;;;11.4;55.6
50166;BME280;36071;48.140;11.516;2023-03-21T09:48:33;95620.0;;;11.6;55.9
50166;BME280;36071;48.140;11.516;2023-03-21T09:53:31;95620.0;;;11.7;55.3
50166;BME280;36071;48.140;11.516;2023-03-21T09:58:31;95620.0;;;11.8;55.2
50166;BME280;36071;48.140;11.516;2023-03-21T10:03:31;95620.0;;;11.9;54.4
50166;BME280;36071;48.140;11.516;2023-03-21T10:08:31;95610.0;;;12.2;53.6
50166;BME280;36071;48.140;11.516;2023-03-21T10:13:31;95610.0;;;12.6;54.5
50166;BME280;36071;48.140;11.516;2023-03-21T10:18:30;95600.0;;;12.9;51.9
50166;BME280;36071;48.140;11.516;2023-03-21T10:23:30;95600.0;;;13.4;50.6
50166;BME280;36071;48.140;11.516;2023-03-21T10:28:31;95600.0;;;13.4;49.0
50166;BME280;36071;48.140;11.516;2023-03-21T10:33:31;95590.0;;;13.8;48.2
50166;BME280;36071;48.140;11.516;2023-03-21T10:38:30;95580.0;;;14.1;48.0
50166;BME280;36071;48.140;11.516;2023-03-21T10:43:32;95580.0;;;14.4;47.4
50166;BME280;36071;48.140;11.516;2023-03-21T10:48:32;95570.0;;;14.5;47.1
50166;BME280;36071;48.140;11.516;2023-03-21T10:53:31;95570.0;;;14.8;46.5
50166;BME280;36071;48.140;11.516;2023-03-21T10:58:33;95560.0;;;14.9;46.1
50166;BME280;36071;48.140;11.516;2023-03-21T11:03:31;95560.0;;;15.0;45.7
50166;BME280;36071;48.140;11.516;2023-03-21T11:08:34;95570.0;;;15.5;46.1
50166;BME280;36071;48.140;11.516;2023-03-21T11:13:32;95560.0;;;16.2;43.0
50166;BME280;36071;48.140;11.516;2023-03-21T11:18:30;95550.0;;;16.7;43.2
50166;BME280;36071;48.140;11.516;2023-03-21T11:23:31;95550.0;;;17.1;42.8
50166;BME280;36071;48.140;11.516;2023-03-21T11:28:32;95540.0;;;17.4;41.6
50166;BME280;36071;48.140;11.516;2023-03-21T11:33:32;95530.0;;;18.1;40.5
50166;BME280;36071;48.140;11.516;2023-03-21T11:38:31;95520.0;;;18.8;37.9
50166;BME280;36071;48.140;11.516;2023-03-21T11:43:31;95510.0;;;18.8;38.2
50166;BME280;36071;48.140;11.516;2023-03-21T11:48:30;95500.0;;;18.9;37.8
50166;BME280;36071;48.140;11.516;2023-03-21T11:53:32;95490.0;;;19.5;40.9
50166;BME280;36071;48.140;11.516;2023-03-21T11:58:32;95490.0;;;19.3;35.5
50166;BME280;36071;48.140;11.516;2023-03-21T12:03:42;95490.0;;;19.6;35.3
50166;BME280;36071;48.140;11.516;2023-03-21T12:08:33;95470.0;;;19.8;35.2
50166;BME280;36071;48.140;11.516;2023-03-21T12:13:33;95460.0;;;20.0;34.6
50166;BME280;36071;48.140;11.516;2023-03-21T12:18:36;95450.0;;;20.3;35.2
50166;BME280;36071;48.140;11.516;2023-03-21T12:23:34;95450.0;;;20.0;34.0
50166;BME280;36071;48.140;11.516;2023-03-21T12:28:34;95440.0;;;20.6;34.9
50166;BME280;36071;48.140;11.516;2023-03-21T12:33:35;95440.0;;;20.7;33.3
50166;BME280;36071;48.140;11.516;2023-03-21T12:38:33;95440.0;;;21.0;32.8
50166;BME280;36071;48.140;11.516;2023-03-21T12:43:32;95440.0;;;21.4;32.5
50166;BME280;36071;48.140;11.516;2023-03-21T12:48:33;95440.0;;;21.2;31.3
50166;BME280;36071;48.140;11.516;2023-03-21T12:53:33;95430.0;;;20.7;32.6
50166;BME280;36071;48.140;11.516;2023-03-21T12:58:30;95420.0;;;20.2;33.5
50166;BME280;36071;48.140;11.516;2023-03-21T13:03:31;95410.0;;;20.2;34.2
50166;BME280;36071;48.140;11.516;2023-03-21T13:08:32;95400.0;;;20.4;33.7
50166;BME280;36071;48.140;11.516;2023-03-21T13:13:32;95390.0;;;20.4;33.0
50166;BME280;36071;48.140;11.516;2023-03-21T13:18:43;95390.0;;;20.5;32.4
50166;BME280;36071;48.140;11.516;2023-03-21T13:23:32;95380.0;;;20.0;32.7
50166;BME280;36071;48.140;11.516;2023-03-21T13:28:32;95380.0;;;19.4;34.9
50166;BME280;36071;48.140;11.516;2023-03-21T13:33:30;95370.0;;;19.6;34.0
50166;BME280;36071;48.140;11.516;2023-03-21T13:38:31;95380.0;;;19.3;32.5
50166;BME280;36071;48.140;11.516;2023-03-21T13:43:31;95380.0;;;19.3;35.0
50166;BME280;36071;48.140;11.516;2023-03-21T13:48:31;95370.0;;;18.9;33.6
50166;BME280;36071;48.140;11.516;2023-03-21T13:53:31;95360.0;;;19.6;32.9
50166;BME280;36071;48.140;11.516;2023-03-21T13:58:32;95350.0;;;19.5;33.2
50166;BME280;36071;48.140;11.516;2023-03-21T14:03:30;95360.0;;;19.3;33.1
50166;BME280;36071;48.140;11.516;2023-03-21T14:08:30;95350.0;;;19.4;32.7
50166;BME280;36071;48.140;11.516;2023-03-21T14:13:30;95350.0;;;19.3;31.9
50166;BME280;36071;48.140;11.516;2023-03-21T14:18:30;95350.0;;;19.4;33.0
50166;BME280;36071;48.140;11.516;2023-03-21T14:23:30;95350.0;;;19.5;33.7
50166;BME280;36071;48.140;11.516;2023-03-21T14:28:30;95340.0;;;19.9;33.9
50166;BME280;36071;48.140;11.516;2023-03-21T14:33:31;95330.0;;;19.8;33.4
50166;BME280;36071;48.140;11.516;2023-03-21T14:38:31;95340.0;;;19.6;31.5
50166;BME280;36071;48.140;11.516;2023-03-21T14:43:30;95330.0;;;19.2;32.4
50166;BME280;36071;48.140;11.516;2023-03-21T14:48:31;95330.0;;;19.2;32.8
50166;BME280;36071;48.140;11.516;2023-03-21T14:53:31;95330.0;;;19.0;33.9
50166;BME280;36071;48.140;11.516;2023-03-21T14:58:31;95320.0;;;18.9;34.7
50166;BME280;36071;48.140;11.516;2023-03-21T15:03:30;95320.0;;;18.9;34.9
50166;BME280;36071;48.140;11.516;2023-03-21T15:08:30;95320.0;;;18.6;35.8
50166;BME280;36071;48.140;11.516;2023-03-21T15:13:31;95310.0;;;18.7;34.9
50166;BME280;36071;48.140;11.516;2023-03-21T15:18:31;95330.0;;;18.3;35.2
50166;BME280;36071;48.140;11.516;2023-03-21T15:23:31;95320.0;;;18.3;36.3
50166;BME280;36071;48.140;11.516;2023-03-21T15:28:32;95310.0;;;17.8;36.9
50166;BME280;36071;48.140;11.516;2023-03-21T15:33:30;95320.0;;;17.9;37.3
50166;BME280;36071;48.140;11.516;2023-03-21T15:38:32;95320.0;;;17.7;37.5
50166;BME280;36071;48.140;11.516;2023-03-21T15:43:36;95320.0;;;17.9;37.7
50166;BME280;36071;48.140;11.516;2023-03-21T15:48:32;95310.0;;;17.6;38.3
50166;BME280;36071;48.140;11.516;2023-03-21T15:53:30;95300.0;;;17.4;38.5
50166;BME280;36071;48.140;11.516;2023-03-21T15:58:31;95320.0;;;17.3;39.0
50166;BME280;36071;48.140;11.516;2023-03-21T16:03:31;95320.0;;;17.3;39.3
50166;BME280;36071;48.140;11.516;2023-03-21T16:08:31;95320.0;;;17.2;39.1
50166;BME280;36071;48.140;11.516;2023-03-21T16:13:30;95320.0;;;17.0;39.9
50166;BME280;36071;48.140;11.516;2023-03-21T16:18:30;95320.0;;;17.0;40.2
50166;BME280;36071;48.140;11.516;2023-03-21T16:23:30;95330.0;;;16.9;40.5
50166;BME280;36071;48.140;11.516;2023-03-21T16:28:30;95330.0;;;16.9;40.6
50166;BME280;36071;48.140;11.516;2023-03-21T16:38:30;95330.0;;;16.8;41.3
50166;BME280;36071;48.140;11.516;2023-03-21T16:43:30;95340.0;;;16.9;41.0
50166;BME280;36071;48.140;11.516;2023-03-21T16:48:30;95340.0;;;16.8;41.0
50166;BME280;36071;48.140;11.516;2023-03-21T16:53:30;95350.0;;;16.7;41.2
50166;BME280;36071;48.140;11.516;2023-03-21T16:58:30;95340.0;;;16.7;41.5
50166;BME280;36071;48.140;11.516;2023-03-21T17:03:30;95340.0;;;16.6;41.6
50166;BME280;36071;48.140;11.516;2023-03-21T17:08:30;95340.0;;;16.6;41.7
50166;BME280;36071;48.140;11.516;2023-03-21T17:13:30;95340.0;;;16.6;41.8
50166;BME280;36071;48.140;11.516;2023-03-21T17:18:30;95340.0;;;16.6;41.7
50166;BME280;36071;48.140;11.516;2023-03-21T17:23:30;95350.0;;;16.5;41.6
50166;BME280;36071;48.140;11.516;2023-03-21T17:28:30;95350.0;;;16.4;41.6
50166;BME280;36071;48.140;11.516;2023-03-21T17:33:30;95310.0;;;16.0;41.7
50166;BME280;36071;48.140;11.516;2023-03-21T17:38:30;95340.0;;;16.1;42.2
50166;BME280;36071;48.140;11.516;2023-03-21T17:43:30;95350.0;;;16.2;42.5
50166;BME280;36071;48.140;11.516;2023-03-21T17:48:30;95340.0;;;16.1;42.5
50166;BME280;36071;48.140;11.516;2023-03-21T17:53:30;95340.0;;;16.0;42.8
50166;BME280;36071;48.140;11.516;2023-03-21T17:58:30;95350.0;;;15.9;43.2
50166;BME280;36071;48.140;11.516;2023-03-21T18:03:30;95350.0;;;15.8;43.2
50166;BME280;36071;48.140;11.516;2023-03-21T18:08:30;95340.0;;;15.7;43.8
50166;BME280;36071;48.140;11.516;2023-03-21T18:13:30;95350.0;;;15.6;44.3
50166;BME280;36071;48.140;11.516;2023-03-21T18:23:30;95350.0;;;15.5;44.7
50166;BME280;36071;48.140;11.516;2023-03-21T18:28:30;95300.0;;;15.1;45.1
50166;BME280;36071;48.140;11.516;2023-03-21T18:33:30;95360.0;;;15.3;45.2
50166;BME280;36071;48.140;11.516;2023-03-21T18:38:30;95370.0;;;15.3;45.1
50166;BME280;36071;48.140;11.516;2023-03-21T18:43:30;95370.0;;;15.2;45.5
50166;BME280;36071;48.140;11.516;2023-03-21T18:48:30;95370.0;;;15.2;45.3
50166;BME280;36071;48.140;11.516;2023-03-21T18:53:30;95360.0;;;15.2;45.2
50166;BME280;36071;48.140;11.516;2023-03-21T18:58:30;95360.0;;;15.1;45.6
50166;BME280;36071;48.140;11.516;2023-03-21T19:03:32;95370.0;;;15.0;45.7
50166;BME280;36071;48.140;11.516;2023-03-21T19:08:30;95390.0;;;14.9;46.3
50166;BME280;36071;48.140;11.516;2023-03-21T19:13:30;95380.0;;;14.8;46.7
50166;BME280;36071;48.140;11.516;2023-03-21T19:18:30;95370.0;;;14.8;47.3
50166;BME280;36071;48.140;11.516;2023-03-21T19:23:30;95380.0;;;14.7;47.9
50166;BME280;36071;48.140;11.516;2023-03-21T19:28:30;95380.0;;;14.7;48.8
50166;BME280;36071;48.140;11.516;2023-03-21T19:33:30;95370.0;;;14.5;49.6
50166;BME280;36071;48.140;11.516;2023-03-21T19:38:30;95380.0;;;14.5;49.6
50166;BME280;36071;48.140;11.516;2023-03-21T19:43:30;95390.0;;;14.4;50.1
50166;BME280;36071;48.140;11.516;2023-03-21T19:48:30;95390.0;;;14.4;50.2
50166;BME280;36071;48.140;11.516;2023-03-21T19:53:30;95390.0;;;14.3;50.7
50166;BME280;36071;48.140;11.516;2023-03-21T19:58:35;95390.0;;;14.3;50.8
50166;BME280;36071;48.140;11.516;2023-03-21T20:03:30;95390.0;;;14.2;51.0
50166;BME280;36071;48.140;11.516;2023-03-21T20:08:30;95390.0;;;14.1;51.6
50166;BME280;36071;48.140;11.516;2023-03-21T20:13:30;95400.0;;;14.1;51.8
50166;BME280;36071;48.140;11.516;2023-03-21T20:18:30;95400.0;;;14.1;51.9
50166;BME280;36071;48.140;11.516;2023-03-21T20:23:30;95400.0;;;14.0;51.9
50166;BME280;36071;48.140;11.516;2023-03-21T20:28:30;95390.0;;;14.0;52.0
50166;BME280;36071;48.140;11.516;2023-03-21T20:33:31;95390.0;;;14.0;52.4
50166;BME280;36071;48.140;11.516;2023-03-21T20:38:31;95400.0;;;13.9;52.7
50166;BME280;36071;48.140;11.516;2023-03-21T20:43:30;95390.0;;;13.9;53.0
50166;BME280;36071;48.140;11.516;2023-03-21T20:48:31;95400.0;;;13.8;53.3
50166;BME280;36071;48.140;11.516;2023-03-21T20:53:30;95400.0;;;13.7;53.5
50166;BME280;36071;48.140;11.516;2023-03-21T20:58:31;95400.0;;;13.7;53.8
50166;BME280;36071;48.140;11.516;2023-03-21T21:03:31;95400.0;;;13.4;54.5
50166;BME280;36071;48.140;11.516;2023-03-21T21:08:30;95410.0;;;13.4;54.6
50166;BME280;36071;48.140;11.516;2023-03-21T21:13:30;95400.0;;;13.3;54.7
50166;BME280;36071;48.140;11.516;2023-03-21T21:18:30;95400.0;;;13.1;54.8
50166;BME280;36071;48.140;11.516;2023-03-21T21:23:30;95400.0;;;13.0;54.6
50166;BME280;36071;48.140;11.516;2023-03-21T21:28:31;95400.0;;;13.0;54.4
50166;BME280;36071;48.140;11.516;2023-03-21T21:33:30;95340.0;;;12.5;54.5
50166;BME280;36071;48.140;11.516;2023-03-21T21:38:30;95410.0;;;12.7;55.1
50166;BME280;36071;48.140;11.516;2023-03-21T21:43:30;95400.0;;;12.7;55.3
50166;BME280;36071;48.140;11.516;2023-03-21T21:53:30;95410.0;;;12.6;55.6
50166;BME280;36071;48.140;11.516;2023-03-21T21:58:30;95400.0;;;12.4;56.2
50166;BME280;36071;48.140;11.516;2023-03-21T22:03:30;95400.0;;;12.5;55.6
50166;BME280;36071;48.140;11.516;2023-03-21T22:08:30;95400.0;;;12.5;55.4
50166;BME280;36071;48.140;11.516;2023-03-21T22:13:30;95400.0;;;12.4;55.0
50166;BME280;36071;48.140;11.516;2023-03-21T22:18:30;95370.0;;;12.2;54.9
50166;BME280;36071;48.140;11.516;2023-03-21T22:23:30;95400.0;;;12.4;54.3
50166;BME280;36071;48.140;11.516;2023-03-21T22:28:30;95400.0;;;12.4;54.0
50166;BME280;36071;48.140;11.516;2023-03-21T22:33:30;95400.0;;;12.4;54.1
50166;BME280;36071;48.140;11.516;2023-03-21T22:38:30;95410.0;;;12.2;54.6
50166;BME280;36071;48.140;11.516;2023-03-21T22:43:30;95400.0;;;12.1;55.1
50166;BME280;36071;48.140;11.516;2023-03-21T22:48:31;95410.0;;;12.1;55.1
50166;BME280;36071;48.140;11.516;2023-03-21T22:53:30;95410.0;;;12.0;55.3
50166;BME280;36071;48.140;11.516;2023-03-21T22:58:30;95400.0;;;12.0;55.6
50166;BME280;36071;48.140;11.516;2023-03-21T23:03:30;95410.0;;;12.0;55.8
50166;BME280;36071;48.140;11.516;2023-03-21T23:08:30;95410.0;;;11.9;55.9
50166;BME280;36071;48.140;11.516;2023-03-21T23:13:30;95410.0;;;11.8;56.3
50166;BME280;36071;48.140;11.516;2023-03-21T23:18:30;95400.0;;;11.7;56.5
50166;BME280;36071;48.140;11.516;2023-03-21T23:23:31;95410.0;;;11.7;56.7
50166;BME280;36071;48.140;11.516;2023-03-21T23:28:30;95400.0;;;11.6;56.8
50166;BME280;36071;48.140;11.516;2023-03-21T23:33:30;95390.0;;;11.6;57.0
50166;BME280;36071;48.140;11.516;2023-03-21T23:38:30;95390.0;;;11.6;56.9
50166;BME280;36071;48.140;11.516;2023-03-21T23:43:30;95390.0;;;11.6;56.8
50166;BME280;36071;48.140;11.516;2023-03-21T23:48:31;95390.0;;;11.5;57.2
50166;BME280;36071;48.140;11.516;2023-03-21T23:58:30;95380.0;;;11.6;57.0
